Lindale, GA (30147)

3:53 PM EDT on July 29, 2014 (GMT -0400)
Lindale (KGALINDA3) Elev 907 ft | 34.16 °N, 85.19 °W | Change Station

Current weather conditions updated 6 seconds ago

Scattered Clouds
Scattered Clouds
81.1 °F
Feels Like 82 °F
N
3.0
Wind Variable Wind from WSW
Gusts 10.0 mph

Today is forecast to be Cooler than yesterday.

Today
High -- | Low -- °F
--% Chance of Precip.
Yesterday
High -- | Low -- °F
Precip. -- in
6:49 AM 8:44 PM
Waxing Crescent, 7% visible
Pressure 29.98 in
Visibility 10.0 miles
Clouds Scattered Clouds 5500 ft
Heat Index 82 °F
Dew Point 60 °F
Humidity 49%
Rainfall 0.00 in
Snow Depth Not available.
UV 7.0 out of 12
Pollen 6.00 out of 12
Air Quality Not available.
Flu Activity Not available.
METAR KRMG 291853Z AUTO 35010G15KT 10SM SCT055 27/13 A3001 RMK AO2 SLP152 T02670133

More Conditions Fewer Conditions

Pressure 29.98 in
Visibility 10.0 miles
Clouds Scattered Clouds 5500 ft
Heat Index 82 °F
Dew Point 60 °F
Humidity 49%
Rainfall 0.00 in
Snow Depth Not available.
UV 7.0 out of 12
Pollen 6.00 out of 12
Air Quality Not available.
Flu Activity Not available.
METAR KRMG 291853Z AUTO 35010G15KT 10SM SCT055 27/13 A3001 RMK AO2 SLP152 T02670133

More Conditions Fewer Conditions

10-Day Weather Forecast

Almanac

Astronomy

Jul. 29, 2014 Rise Set
Actual Time 6:49 AM EDT 8:44 PM EDT
Civil Twilight 6:22 AM EDT 9:11 PM EDT
Nautical Twilight 5:48 AM EDT 9:45 PM EDT
Astronomical Twilight 5:12 AM EDT 10:21 PM EDT
Moon 9:16 AM EDT 10:06 PM EDT
Length of Visible Light 14h 49m
Length of Day
13h 54m
Tomorrow will be 1m 32s shorter.
Waxing Crescent, 7% of the Moon is Illuminated
Today
Waxing Crescent
Aug 3
First Quarter
Aug 10
Full
Aug 17
Last Quarter
Aug 25
New

Today's Extremes

State Highs State Lows

Community

WunderPhotos

Upload Photos

1,738,834 photos uploaded!

Nearby

Snow Depth

Station Depth Elevation
No new snow has been reported.

Earthquake Activity

City Distance Mag. Time & Date
No recent earthquake activity has been reported nearby.
Minimum magnitude displayed is 2.5.

Coastal Water Temperatures

Place Temperature
No Stations Reporting

Nearby Weather Stations

Station Location Temp. Heat Index Dew Point Humidity Wind Precip. Elev Updated Type
Lindale, Lindale, GA 81.1 °F 82 °F 60 °F 49% WSW  at  3.0 mph 0.00 in / hr 907 ft 3:53 PM EDT Rapid Fire
Lindale, Lindale, GA 81.0 °F 82 °F 61 °F 50% ENE  at  0.0 mph 0.00 in / hr 780 ft 3:53 PM EDT Rapid Fire
Rome, Rome, GA 81.6 °F 85 °F 68 °F 64% WSW  at  1.0 mph - / hr 696 ft 3:50 PM EDT Normal
Highlands of Rome, Rome, GA 80.7 °F 82 °F 61 °F 52% WSW  at  1.0 mph 0.00 in / hr 665 ft 3:49 PM EDT Normal
Fair Oaks/West Rome, Rome, GA 81.3 °F 81 °F 57 °F 44% NW  at  4.5 mph 0.00 in / hr 794 ft 3:53 PM EDT Rapid Fire
Dallas, GA 79.7 °F 81 °F 60 °F 51% SW  at  0.0 mph 0.00 in / hr 1063 ft 3:42 PM EDT Normal
Waterford, Cartersville, GA 84.4 °F 84 °F 59 °F 42% WSW  at  0.0 mph 0.00 in / hr 696 ft 3:52 PM EDT Rapid Fire

Show More Stations Show Fewer Stations